Hebron, Illinois
Current Conditions -  °F | °C
As of 2:35 AM on Friday 19 Dec 2014 (Local Time) from KBUU Reporting Station
Overcast Overcast  
Wind Chill: 25°   Ceiling: 1800
Heat Index: 25°   Visibility: 10mi
Dew Point: 20°   Wind: 3mph
Humidity: 82%   Direction: 290°WNW
Pressure: 30.28"   Gusts: NA
Location:  42.47°N, 88.43°W
Report Text: KBUU 190835Z AUTO 29003KT 10SM OVC018 M04/M07 A3028 RMK AO2 T10401067
Loading
Personal Weather Stations






























Interactive Weather Map New forecast layout! Learn more

10-Day Weather Forecast

Advertisements
Track Severe Weather on mobile